sensor_id;sensor_type;location;lat;lon;timestamp;temperature;humidity
45283;DHT22;31023;44.994;1.796;2022-08-06T00:02:27;23.30;77.70
45283;DHT22;31023;44.994;1.796;2022-08-06T00:04:54;23.30;77.90
45283;DHT22;31023;44.994;1.796;2022-08-06T00:07:19;23.20;78.10
45283;DHT22;31023;44.994;1.796;2022-08-06T00:09:45;23.10;78.30
45283;DHT22;31023;44.994;1.796;2022-08-06T00:12:10;23.10;78.10
45283;DHT22;31023;44.994;1.796;2022-08-06T00:14:36;23.10;78.50
45283;DHT22;31023;44.994;1.796;2022-08-06T00:17:02;23.10;78.40
45283;DHT22;31023;44.994;1.796;2022-08-06T00:19:27;23.10;78.50
45283;DHT22;31023;44.994;1.796;2022-08-06T00:21:53;23.00;78.80
45283;DHT22;31023;44.994;1.796;2022-08-06T00:24:19;23.10;78.70
45283;DHT22;31023;44.994;1.796;2022-08-06T00:26:44;23.00;79.10
45283;DHT22;31023;44.994;1.796;2022-08-06T00:29:10;23.00;78.90
45283;DHT22;31023;44.994;1.796;2022-08-06T00:31:35;23.10;78.70
45283;DHT22;31023;44.994;1.796;2022-08-06T00:34:01;23.00;79.10
45283;DHT22;31023;44.994;1.796;2022-08-06T00:36:31;22.90;79.40
45283;DHT22;31023;44.994;1.796;2022-08-06T00:38:58;22.90;79.20
45283;DHT22;31023;44.994;1.796;2022-08-06T00:41:24;22.90;79.50
45283;DHT22;31023;44.994;1.796;2022-08-06T00:43:50;22.90;79.10
45283;DHT22;31023;44.994;1.796;2022-08-06T00:46:15;23.00;79.10
45283;DHT22;31023;44.994;1.796;2022-08-06T00:48:41;23.00;78.90
45283;DHT22;31023;44.994;1.796;2022-08-06T00:51:06;22.90;79.20
45283;DHT22;31023;44.994;1.796;2022-08-06T00:53:32;22.90;79.60
45283;DHT22;31023;44.994;1.796;2022-08-06T00:55:58;22.90;79.60
45283;DHT22;31023;44.994;1.796;2022-08-06T00:58:23;22.80;79.70
45283;DHT22;31023;44.994;1.796;2022-08-06T01:00:49;22.80;79.70
45283;DHT22;31023;44.994;1.796;2022-08-06T01:03:15;22.70;79.80
45283;DHT22;31023;44.994;1.796;2022-08-06T01:05:42;22.70;79.80
45283;DHT22;31023;44.994;1.796;2022-08-06T01:08:09;22.80;79.90
45283;DHT22;31023;44.994;1.796;2022-08-06T01:10:34;22.80;79.60
45283;DHT22;31023;44.994;1.796;2022-08-06T01:13:00;22.80;79.60
45283;DHT22;31023;44.994;1.796;2022-08-06T01:15:26;22.70;79.90
45283;DHT22;31023;44.994;1.796;2022-08-06T01:17:55;22.80;79.50
45283;DHT22;31023;44.994;1.796;2022-08-06T01:20:33;22.80;79.40
45283;DHT22;31023;44.994;1.796;2022-08-06T01:30:51;22.70;79.60
45283;DHT22;31023;44.994;1.796;2022-08-06T01:33:25;22.70;79.80
45283;DHT22;31023;44.994;1.796;2022-08-06T01:35:53;22.70;79.90
45283;DHT22;31023;44.994;1.796;2022-08-06T01:38:23;22.70;80.00
45283;DHT22;31023;44.994;1.796;2022-08-06T01:40:51;22.70;80.00
45283;DHT22;31023;44.994;1.796;2022-08-06T01:43:17;22.80;79.40
45283;DHT22;31023;44.994;1.796;2022-08-06T01:45:44;22.70;79.80
45283;DHT22;31023;44.994;1.796;2022-08-06T01:48:12;22.80;79.40
45283;DHT22;31023;44.994;1.796;2022-08-06T01:50:41;22.80;79.30
45283;DHT22;31023;44.994;1.796;2022-08-06T01:53:08;22.80;79.70
45283;DHT22;31023;44.994;1.796;2022-08-06T01:55:38;22.80;79.40
45283;DHT22;31023;44.994;1.796;2022-08-06T01:58:04;22.70;80.00
45283;DHT22;31023;44.994;1.796;2022-08-06T02:00:30;22.80;79.80
45283;DHT22;31023;44.994;1.796;2022-08-06T02:03:00;22.80;79.70
45283;DHT22;31023;44.994;1.796;2022-08-06T02:05:26;22.80;79.70
45283;DHT22;31023;44.994;1.796;2022-08-06T02:07:53;22.70;79.50
45283;DHT22;31023;44.994;1.796;2022-08-06T02:10:21;22.70;79.70
45283;DHT22;31023;44.994;1.796;2022-08-06T02:12:48;22.60;80.00
45283;DHT22;31023;44.994;1.796;2022-08-06T02:15:17;22.60;79.80
45283;DHT22;31023;44.994;1.796;2022-08-06T02:17:46;22.60;79.80
45283;DHT22;31023;44.994;1.796;2022-08-06T02:20:13;22.60;80.10
45283;DHT22;31023;44.994;1.796;2022-08-06T02:22:40;22.50;80.10
45283;DHT22;31023;44.994;1.796;2022-08-06T02:25:07;22.50;80.40
45283;DHT22;31023;44.994;1.796;2022-08-06T02:27:38;22.40;80.70
45283;DHT22;31023;44.994;1.796;2022-08-06T02:30:06;22.30;81.00
45283;DHT22;31023;44.994;1.796;2022-08-06T02:32:31;22.30;81.10
45283;DHT22;31023;44.994;1.796;2022-08-06T02:34:57;22.30;81.20
45283;DHT22;31023;44.994;1.796;2022-08-06T02:37:29;22.20;81.50
45283;DHT22;31023;44.994;1.796;2022-08-06T02:40:07;22.20;81.50
45283;DHT22;31023;44.994;1.796;2022-08-06T02:42:42;22.10;81.90
45283;DHT22;31023;44.994;1.796;2022-08-06T02:45:29;22.10;82.10
45283;DHT22;31023;44.994;1.796;2022-08-06T02:48:16;22.00;82.10
45283;DHT22;31023;44.994;1.796;2022-08-06T02:50:44;22.00;82.40
45283;DHT22;31023;44.994;1.796;2022-08-06T02:53:15;22.10;82.20
45283;DHT22;31023;44.994;1.796;2022-08-06T02:55:42;22.10;82.00
45283;DHT22;31023;44.994;1.796;2022-08-06T02:58:11;22.10;82.20
45283;DHT22;31023;44.994;1.796;2022-08-06T03:00:38;22.10;82.50
45283;DHT22;31023;44.994;1.796;2022-08-06T03:03:05;22.10;82.30
45283;DHT22;31023;44.994;1.796;2022-08-06T03:05:32;22.10;82.50
45283;DHT22;31023;44.994;1.796;2022-08-06T03:07:59;22.00;82.50
45283;DHT22;31023;44.994;1.796;2022-08-06T03:10:25;22.00;82.70
45283;DHT22;31023;44.994;1.796;2022-08-06T03:12:52;22.00;82.60
45283;DHT22;31023;44.994;1.796;2022-08-06T03:15:19;22.00;82.80
45283;DHT22;31023;44.994;1.796;2022-08-06T03:17:45;22.00;82.80
45283;DHT22;31023;44.994;1.796;2022-08-06T03:20:11;22.10;82.80
45283;DHT22;31023;44.994;1.796;2022-08-06T03:22:38;22.00;83.30
45283;DHT22;31023;44.994;1.796;2022-08-06T03:25:04;22.00;83.40
45283;DHT22;31023;44.994;1.796;2022-08-06T03:27:31;22.00;83.10
45283;DHT22;31023;44.994;1.796;2022-08-06T03:29:57;22.10;82.90
45283;DHT22;31023;44.994;1.796;2022-08-06T03:32:23;22.10;82.80
45283;DHT22;31023;44.994;1.796;2022-08-06T03:34:49;22.00;83.10
45283;DHT22;31023;44.994;1.796;2022-08-06T03:37:16;22.10;83.10
45283;DHT22;31023;44.994;1.796;2022-08-06T03:39:42;22.10;83.10
45283;DHT22;31023;44.994;1.796;2022-08-06T03:42:08;22.10;83.30
45283;DHT22;31023;44.994;1.796;2022-08-06T03:44:34;22.10;83.40
45283;DHT22;31023;44.994;1.796;2022-08-06T03:49:55;22.10;83.10
45283;DHT22;31023;44.994;1.796;2022-08-06T03:52:23;22.00;83.20
45283;DHT22;31023;44.994;1.796;2022-08-06T03:54:50;22.00;83.50
45283;DHT22;31023;44.994;1.796;2022-08-06T03:57:21;22.00;83.20
45283;DHT22;31023;44.994;1.796;2022-08-06T03:59:48;22.00;83.20
45283;DHT22;31023;44.994;1.796;2022-08-06T04:02:15;22.00;83.40
45283;DHT22;31023;44.994;1.796;2022-08-06T04:04:42;22.00;83.50
45283;DHT22;31023;44.994;1.796;2022-08-06T04:07:07;21.90;83.70
45283;DHT22;31023;44.994;1.796;2022-08-06T04:09:33;21.90;83.80
45283;DHT22;31023;44.994;1.796;2022-08-06T04:11:59;21.90;84.20
45283;DHT22;31023;44.994;1.796;2022-08-06T04:14:25;21.90;84.40
45283;DHT22;31023;44.994;1.796;2022-08-06T04:16:51;21.90;84.20
45283;DHT22;31023;44.994;1.796;2022-08-06T04:19:17;21.90;84.20
45283;DHT22;31023;44.994;1.796;2022-08-06T04:21:44;21.90;84.30
45283;DHT22;31023;44.994;1.796;2022-08-06T04:24:10;21.90;84.50
45283;DHT22;31023;44.994;1.796;2022-08-06T04:26:37;21.90;84.30
45283;DHT22;31023;44.994;1.796;2022-08-06T04:29:02;21.90;84.30
45283;DHT22;31023;44.994;1.796;2022-08-06T04:31:30;21.90;84.70
45283;DHT22;31023;44.994;1.796;2022-08-06T04:33:57;21.80;84.90
45283;DHT22;31023;44.994;1.796;2022-08-06T04:36:23;21.80;85.30
45283;DHT22;31023;44.994;1.796;2022-08-06T04:38:49;21.80;85.40
45283;DHT22;31023;44.994;1.796;2022-08-06T04:41:15;21.70;85.50
45283;DHT22;31023;44.994;1.796;2022-08-06T04:43:41;21.70;85.60
45283;DHT22;31023;44.994;1.796;2022-08-06T04:46:07;21.70;85.50
45283;DHT22;31023;44.994;1.796;2022-08-06T04:48:33;21.70;85.30
45283;DHT22;31023;44.994;1.796;2022-08-06T04:51:01;21.60;85.50
45283;DHT22;31023;44.994;1.796;2022-08-06T04:53:27;21.50;85.90
45283;DHT22;31023;44.994;1.796;2022-08-06T04:55:52;21.60;85.80
45283;DHT22;31023;44.994;1.796;2022-08-06T04:58:18;21.50;86.20
45283;DHT22;31023;44.994;1.796;2022-08-06T05:00:44;21.50;86.60
45283;DHT22;31023;44.994;1.796;2022-08-06T05:03:10;21.50;86.50
45283;DHT22;31023;44.994;1.796;2022-08-06T05:05:42;21.60;86.20
45283;DHT22;31023;44.994;1.796;2022-08-06T05:08:08;21.60;86.10
45283;DHT22;31023;44.994;1.796;2022-08-06T05:10:39;21.50;86.10
45283;DHT22;31023;44.994;1.796;2022-08-06T05:13:06;21.50;86.10
45283;DHT22;31023;44.994;1.796;2022-08-06T05:15:38;21.50;86.50
45283;DHT22;31023;44.994;1.796;2022-08-06T05:18:19;21.40;86.90
45283;DHT22;31023;44.994;1.796;2022-08-06T05:20:47;21.60;86.20
45283;DHT22;31023;44.994;1.796;2022-08-06T05:23:17;21.60;86.20
45283;DHT22;31023;44.994;1.796;2022-08-06T05:25:43;21.70;86.00
45283;DHT22;31023;44.994;1.796;2022-08-06T05:28:09;21.70;86.10
45283;DHT22;31023;44.994;1.796;2022-08-06T05:30:41;21.70;85.60
45283;DHT22;31023;44.994;1.796;2022-08-06T05:33:06;21.90;85.30
45283;DHT22;31023;44.994;1.796;2022-08-06T05:35:32;22.10;84.60
45283;DHT22;31023;44.994;1.796;2022-08-06T05:37:57;22.20;84.00
45283;DHT22;31023;44.994;1.796;2022-08-06T05:40:23;22.30;83.70
45283;DHT22;31023;44.994;1.796;2022-08-06T05:42:48;22.30;83.60
45283;DHT22;31023;44.994;1.796;2022-08-06T05:45:14;22.80;82.30
45283;DHT22;31023;44.994;1.796;2022-08-06T05:47:41;22.60;82.50
45283;DHT22;31023;44.994;1.796;2022-08-06T05:50:11;22.60;82.10
45283;DHT22;31023;44.994;1.796;2022-08-06T05:52:56;22.50;82.30
45283;DHT22;31023;44.994;1.796;2022-08-06T05:55:27;22.50;82.20
45283;DHT22;31023;44.994;1.796;2022-08-06T05:57:56;22.50;82.70
45283;DHT22;31023;44.994;1.796;2022-08-06T06:00:23;22.40;82.90
45283;DHT22;31023;44.994;1.796;2022-08-06T06:02:50;22.60;82.00
45283;DHT22;31023;44.994;1.796;2022-08-06T06:05:16;23.50;80.40
45283;DHT22;31023;44.994;1.796;2022-08-06T06:07:43;25.10;75.20
45283;DHT22;31023;44.994;1.796;2022-08-06T06:10:09;26.10;73.00
45283;DHT22;31023;44.994;1.796;2022-08-06T06:12:35;27.00;70.20
45283;DHT22;31023;44.994;1.796;2022-08-06T06:15:02;26.80;70.10
45283;DHT22;31023;44.994;1.796;2022-08-06T06:22:30;27.60;67.80
45283;DHT22;31023;44.994;1.796;2022-08-06T06:25:10;27.50;67.40
45283;DHT22;31023;44.994;1.796;2022-08-06T06:27:49;27.90;66.60
45283;DHT22;31023;44.994;1.796;2022-08-06T06:30:30;28.10;65.80
45283;DHT22;31023;44.994;1.796;2022-08-06T06:33:09;27.90;66.30
45283;DHT22;31023;44.994;1.796;2022-08-06T06:35:59;28.20;65.80
45283;DHT22;31023;44.994;1.796;2022-08-06T06:40:58;28.50;64.60
45283;DHT22;31023;44.994;1.796;2022-08-06T06:48:35;28.70;64.30
45283;DHT22;31023;44.994;1.796;2022-08-06T06:51:05;29.30;64.10
45283;DHT22;31023;44.994;1.796;2022-08-06T06:53:34;29.10;63.00
45283;DHT22;31023;44.994;1.796;2022-08-06T06:56:00;29.00;63.70
45283;DHT22;31023;44.994;1.796;2022-08-06T06:58:35;29.30;63.00
45283;DHT22;31023;44.994;1.796;2022-08-06T07:01:03;29.40;62.70
45283;DHT22;31023;44.994;1.796;2022-08-06T07:03:30;29.50;61.90
45283;DHT22;31023;44.994;1.796;2022-08-06T07:05:59;30.00;61.40
45283;DHT22;31023;44.994;1.796;2022-08-06T07:08:25;30.20;60.50
45283;DHT22;31023;44.994;1.796;2022-08-06T07:10:51;30.40;60.00
45283;DHT22;31023;44.994;1.796;2022-08-06T07:13:17;31.20;58.90
45283;DHT22;31023;44.994;1.796;2022-08-06T07:15:45;30.80;59.60
45283;DHT22;31023;44.994;1.796;2022-08-06T07:18:10;30.60;59.50
45283;DHT22;31023;44.994;1.796;2022-08-06T07:20:36;30.80;59.60
45283;DHT22;31023;44.994;1.796;2022-08-06T07:23:06;31.10;58.30
45283;DHT22;31023;44.994;1.796;2022-08-06T07:25:36;31.10;58.10
45283;DHT22;31023;44.994;1.796;2022-08-06T07:28:03;31.50;58.40
45283;DHT22;31023;44.994;1.796;2022-08-06T07:30:29;31.20;58.30
45283;DHT22;31023;44.994;1.796;2022-08-06T07:32:55;31.80;57.80
45283;DHT22;31023;44.994;1.796;2022-08-06T07:35:21;32.30;56.40
45283;DHT22;31023;44.994;1.796;2022-08-06T07:37:48;32.80;55.60
45283;DHT22;31023;44.994;1.796;2022-08-06T07:40:16;32.80;56.40
45283;DHT22;31023;44.994;1.796;2022-08-06T07:42:43;32.70;55.80
45283;DHT22;31023;44.994;1.796;2022-08-06T07:45:10;32.70;55.70
45283;DHT22;31023;44.994;1.796;2022-08-06T07:47:39;32.50;55.50
45283;DHT22;31023;44.994;1.796;2022-08-06T07:50:04;33.00;55.10
45283;DHT22;31023;44.994;1.796;2022-08-06T07:52:30;33.30;54.40
45283;DHT22;31023;44.994;1.796;2022-08-06T07:54:56;33.10;54.70
45283;DHT22;31023;44.994;1.796;2022-08-06T07:57:22;33.40;54.00
45283;DHT22;31023;44.994;1.796;2022-08-06T07:59:48;33.30;54.00
45283;DHT22;31023;44.994;1.796;2022-08-06T08:02:14;33.60;54.00
45283;DHT22;31023;44.994;1.796;2022-08-06T08:04:41;33.20;54.30
45283;DHT22;31023;44.994;1.796;2022-08-06T08:07:25;34.00;53.60
45283;DHT22;31023;44.994;1.796;2022-08-06T08:09:51;34.00;53.40
45283;DHT22;31023;44.994;1.796;2022-08-06T08:12:18;34.10;52.80
45283;DHT22;31023;44.994;1.796;2022-08-06T08:14:44;34.30;51.80
45283;DHT22;31023;44.994;1.796;2022-08-06T08:17:10;34.90;52.10
45283;DHT22;31023;44.994;1.796;2022-08-06T08:19:35;35.20;51.90
45283;DHT22;31023;44.994;1.796;2022-08-06T08:22:12;36.30;50.20
45283;DHT22;31023;44.994;1.796;2022-08-06T08:24:39;36.20;50.20
45283;DHT22;31023;44.994;1.796;2022-08-06T08:27:05;34.80;52.00
45283;DHT22;31023;44.994;1.796;2022-08-06T08:29:34;35.80;50.60
45283;DHT22;31023;44.994;1.796;2022-08-06T08:32:00;36.50;49.00
45283;DHT22;31023;44.994;1.796;2022-08-06T08:34:25;36.20;49.30
45283;DHT22;31023;44.994;1.796;2022-08-06T08:36:51;37.00;49.10
45283;DHT22;31023;44.994;1.796;2022-08-06T08:39:18;37.10;49.40
45283;DHT22;31023;44.994;1.796;2022-08-06T08:41:48;37.40;48.20
45283;DHT22;31023;44.994;1.796;2022-08-06T08:44:14;37.80;47.80
45283;DHT22;31023;44.994;1.796;2022-08-06T08:46:45;37.30;48.40
45283;DHT22;31023;44.994;1.796;2022-08-06T08:49:26;37.10;48.40
45283;DHT22;31023;44.994;1.796;2022-08-06T08:51:52;36.80;48.40
45283;DHT22;31023;44.994;1.796;2022-08-06T08:54:21;37.00;47.20
45283;DHT22;31023;44.994;1.796;2022-08-06T08:56:47;38.10;47.30
45283;DHT22;31023;44.994;1.796;2022-08-06T08:59:13;38.10;46.60
45283;DHT22;31023;44.994;1.796;2022-08-06T09:01:39;37.90;47.30
45283;DHT22;31023;44.994;1.796;2022-08-06T09:04:06;37.50;46.70
45283;DHT22;31023;44.994;1.796;2022-08-06T09:06:32;37.70;46.90
45283;DHT22;31023;44.994;1.796;2022-08-06T09:09:00;38.50;47.00
45283;DHT22;31023;44.994;1.796;2022-08-06T09:11:31;38.80;46.00
45283;DHT22;31023;44.994;1.796;2022-08-06T09:13:59;39.10;45.80
45283;DHT22;31023;44.994;1.796;2022-08-06T09:16:25;38.50;46.50
45283;DHT22;31023;44.994;1.796;2022-08-06T09:18:51;40.00;45.70
45283;DHT22;31023;44.994;1.796;2022-08-06T09:21:16;40.70;44.80
45283;DHT22;31023;44.994;1.796;2022-08-06T09:23:42;39.60;45.30
45283;DHT22;31023;44.994;1.796;2022-08-06T09:26:07;39.20;44.60
45283;DHT22;31023;44.994;1.796;2022-08-06T09:34:04;38.20;46.30
45283;DHT22;31023;44.994;1.796;2022-08-06T09:36:42;38.10;46.30
45283;DHT22;31023;44.994;1.796;2022-08-06T09:39:08;38.00;45.70
45283;DHT22;31023;44.994;1.796;2022-08-06T09:41:34;38.60;45.30
45283;DHT22;31023;44.994;1.796;2022-08-06T09:44:08;39.10;44.80
45283;DHT22;31023;44.994;1.796;2022-08-06T09:46:52;40.50;44.20
45283;DHT22;31023;44.994;1.796;2022-08-06T09:49:18;40.70;43.80
45283;DHT22;31023;44.994;1.796;2022-08-06T09:51:45;39.10;44.10
45283;DHT22;31023;44.994;1.796;2022-08-06T09:54:11;40.70;45.10
45283;DHT22;31023;44.994;1.796;2022-08-06T09:56:43;40.30;43.10
45283;DHT22;31023;44.994;1.796;2022-08-06T09:59:09;40.70;43.90
45283;DHT22;31023;44.994;1.796;2022-08-06T10:01:43;41.40;44.20
45283;DHT22;31023;44.994;1.796;2022-08-06T10:04:12;42.20;43.40
45283;DHT22;31023;44.994;1.796;2022-08-06T10:06:55;41.30;43.50
45283;DHT22;31023;44.994;1.796;2022-08-06T10:09:20;41.20;43.20
45283;DHT22;31023;44.994;1.796;2022-08-06T10:11:46;38.80;43.40
45283;DHT22;31023;44.994;1.796;2022-08-06T10:14:22;39.20;44.40
45283;DHT22;31023;44.994;1.796;2022-08-06T10:19:32;40.40;42.60
45283;DHT22;31023;44.994;1.796;2022-08-06T10:22:07;38.40;43.90
45283;DHT22;31023;44.994;1.796;2022-08-06T10:24:36;39.60;44.40
45283;DHT22;31023;44.994;1.796;2022-08-06T10:27:05;40.30;44.70
45283;DHT22;31023;44.994;1.796;2022-08-06T10:29:31;39.60;43.70
45283;DHT22;31023;44.994;1.796;2022-08-06T10:31:57;38.30;44.10
45283;DHT22;31023;44.994;1.796;2022-08-06T10:34:24;38.00;44.80
45283;DHT22;31023;44.994;1.796;2022-08-06T10:36:55;36.60;45.20
45283;DHT22;31023;44.994;1.796;2022-08-06T10:39:24;36.10;47.40
45283;DHT22;31023;44.994;1.796;2022-08-06T10:41:51;35.00;47.20
45283;DHT22;31023;44.994;1.796;2022-08-06T10:44:16;34.60;50.10
45283;DHT22;31023;44.994;1.796;2022-08-06T10:46:42;34.50;48.80
45283;DHT22;31023;44.994;1.796;2022-08-06T10:49:08;34.60;48.90
45283;DHT22;31023;44.994;1.796;2022-08-06T10:51:34;34.60;49.00
45283;DHT22;31023;44.994;1.796;2022-08-06T10:54:01;34.50;49.60
45283;DHT22;31023;44.994;1.796;2022-08-06T10:56:27;33.90;51.30
45283;DHT22;31023;44.994;1.796;2022-08-06T10:58:53;33.90;49.90
45283;DHT22;31023;44.994;1.796;2022-08-06T11:01:35;33.80;50.50
45283;DHT22;31023;44.994;1.796;2022-08-06T11:04:14;33.50;49.90
45283;DHT22;31023;44.994;1.796;2022-08-06T11:09:42;33.40;51.60
45283;DHT22;31023;44.994;1.796;2022-08-06T11:14:51;33.40;51.50
45283;DHT22;31023;44.994;1.796;2022-08-06T11:17:17;33.50;51.50
45283;DHT22;31023;44.994;1.796;2022-08-06T11:19:44;33.40;51.00
45283;DHT22;31023;44.994;1.796;2022-08-06T11:24:54;32.80;51.60
45283;DHT22;31023;44.994;1.796;2022-08-06T11:30:10;32.70;51.80
45283;DHT22;31023;44.994;1.796;2022-08-06T11:32:54;33.30;51.10
45283;DHT22;31023;44.994;1.796;2022-08-06T11:40:26;33.00;53.70
45283;DHT22;31023;44.994;1.796;2022-08-06T11:42:51;33.00;53.00
45283;DHT22;31023;44.994;1.796;2022-08-06T11:45:17;33.10;52.50
45283;DHT22;31023;44.994;1.796;2022-08-06T11:50:27;32.90;52.50
45283;DHT22;31023;44.994;1.796;2022-08-06T11:52:53;32.90;52.50
45283;DHT22;31023;44.994;1.796;2022-08-06T11:55:18;32.60;51.50
45283;DHT22;31023;44.994;1.796;2022-08-06T11:57:44;32.70;53.10
45283;DHT22;31023;44.994;1.796;2022-08-06T12:00:11;32.90;52.80
45283;DHT22;31023;44.994;1.796;2022-08-06T12:07:39;33.00;51.90
45283;DHT22;31023;44.994;1.796;2022-08-06T12:12:44;32.20;51.50
45283;DHT22;31023;44.994;1.796;2022-08-06T12:22:59;32.40;51.90
45283;DHT22;31023;44.994;1.796;2022-08-06T12:25:32;32.90;52.40
45283;DHT22;31023;44.994;1.796;2022-08-06T12:27:58;32.90;51.10
45283;DHT22;31023;44.994;1.796;2022-08-06T12:30:24;32.90;51.20
45283;DHT22;31023;44.994;1.796;2022-08-06T12:32:56;33.10;51.00
45283;DHT22;31023;44.994;1.796;2022-08-06T12:35:23;33.10;50.70
45283;DHT22;31023;44.994;1.796;2022-08-06T12:37:49;32.90;50.80
45283;DHT22;31023;44.994;1.796;2022-08-06T12:40:15;32.80;50.80
45283;DHT22;31023;44.994;1.796;2022-08-06T12:45:22;32.40;51.60
45283;DHT22;31023;44.994;1.796;2022-08-06T12:47:58;32.50;51.70
45283;DHT22;31023;44.994;1.796;2022-08-06T12:50:26;32.50;51.10
45283;DHT22;31023;44.994;1.796;2022-08-06T12:53:13;32.30;51.60
45283;DHT22;31023;44.994;1.796;2022-08-06T12:55:54;32.40;51.50
45283;DHT22;31023;44.994;1.796;2022-08-06T12:58:22;32.50;51.00
45283;DHT22;31023;44.994;1.796;2022-08-06T13:00:58;32.50;51.60
45283;DHT22;31023;44.994;1.796;2022-08-06T13:03:24;32.60;51.50
45283;DHT22;31023;44.994;1.796;2022-08-06T13:05:51;32.80;51.10
45283;DHT22;31023;44.994;1.796;2022-08-06T13:08:18;32.30;51.90
45283;DHT22;31023;44.994;1.796;2022-08-06T13:10:51;32.70;51.20
45283;DHT22;31023;44.994;1.796;2022-08-06T13:13:17;33.00;51.60
45283;DHT22;31023;44.994;1.796;2022-08-06T13:15:42;33.10;51.90
45283;DHT22;31023;44.994;1.796;2022-08-06T13:18:23;33.60;51.60
45283;DHT22;31023;44.994;1.796;2022-08-06T13:20:50;33.60;51.40
45283;DHT22;31023;44.994;1.796;2022-08-06T13:23:27;33.60;52.30
45283;DHT22;31023;44.994;1.796;2022-08-06T13:25:52;33.30;50.20
45283;DHT22;31023;44.994;1.796;2022-08-06T13:28:19;33.40;50.40
45283;DHT22;31023;44.994;1.796;2022-08-06T13:30:45;33.00;50.60
45283;DHT22;31023;44.994;1.796;2022-08-06T13:33:12;32.70;50.40
45283;DHT22;31023;44.994;1.796;2022-08-06T13:35:38;32.40;51.50
45283;DHT22;31023;44.994;1.796;2022-08-06T13:38:04;32.60;51.00
45283;DHT22;31023;44.994;1.796;2022-08-06T13:43:04;31.40;52.20
45283;DHT22;31023;44.994;1.796;2022-08-06T13:45:30;31.80;52.20
45283;DHT22;31023;44.994;1.796;2022-08-06T13:50:27;31.50;52.10
45283;DHT22;31023;44.994;1.796;2022-08-06T13:52:52;31.30;52.00
45283;DHT22;31023;44.994;1.796;2022-08-06T13:55:22;31.40;51.60
45283;DHT22;31023;44.994;1.796;2022-08-06T13:57:47;31.30;51.70
45283;DHT22;31023;44.994;1.796;2022-08-06T14:00:13;31.60;51.90
45283;DHT22;31023;44.994;1.796;2022-08-06T14:02:39;31.80;51.60
45283;DHT22;31023;44.994;1.796;2022-08-06T14:05:04;31.90;51.60
45283;DHT22;31023;44.994;1.796;2022-08-06T14:07:30;31.80;51.10
45283;DHT22;31023;44.994;1.796;2022-08-06T14:09:56;31.60;51.50
45283;DHT22;31023;44.994;1.796;2022-08-06T14:12:22;31.90;51.70
45283;DHT22;31023;44.994;1.796;2022-08-06T14:14:47;31.80;50.90
45283;DHT22;31023;44.994;1.796;2022-08-06T14:17:13;31.70;50.40
45283;DHT22;31023;44.994;1.796;2022-08-06T14:19:38;31.40;50.90
45283;DHT22;31023;44.994;1.796;2022-08-06T14:22:04;31.40;51.50
45283;DHT22;31023;44.994;1.796;2022-08-06T14:24:29;31.50;51.70
45283;DHT22;31023;44.994;1.796;2022-08-06T14:26:55;31.60;50.90
45283;DHT22;31023;44.994;1.796;2022-08-06T14:29:21;31.70;51.40
45283;DHT22;31023;44.994;1.796;2022-08-06T14:31:46;31.80;52.00
45283;DHT22;31023;44.994;1.796;2022-08-06T14:34:12;31.60;51.30
45283;DHT22;31023;44.994;1.796;2022-08-06T14:36:38;31.30;50.40
45283;DHT22;31023;44.994;1.796;2022-08-06T14:39:03;31.30;51.00
45283;DHT22;31023;44.994;1.796;2022-08-06T14:41:29;31.50;50.90
45283;DHT22;31023;44.994;1.796;2022-08-06T14:44:13;31.60;50.50
45283;DHT22;31023;44.994;1.796;2022-08-06T14:46:57;31.80;50.10
45283;DHT22;31023;44.994;1.796;2022-08-06T14:49:23;31.40;49.60
45283;DHT22;31023;44.994;1.796;2022-08-06T14:51:48;31.30;50.00
45283;DHT22;31023;44.994;1.796;2022-08-06T14:54:15;31.60;51.40
45283;DHT22;31023;44.994;1.796;2022-08-06T14:56:41;31.50;50.40
45283;DHT22;31023;44.994;1.796;2022-08-06T14:59:06;31.30;51.20
45283;DHT22;31023;44.994;1.796;2022-08-06T15:01:32;31.40;50.60
45283;DHT22;31023;44.994;1.796;2022-08-06T15:03:57;31.80;52.20
45283;DHT22;31023;44.994;1.796;2022-08-06T15:06:23;31.80;51.00
45283;DHT22;31023;44.994;1.796;2022-08-06T15:08:48;31.70;50.00
45283;DHT22;31023;44.994;1.796;2022-08-06T15:11:14;31.70;51.10
45283;DHT22;31023;44.994;1.796;2022-08-06T15:13:40;31.70;50.60
45283;DHT22;31023;44.994;1.796;2022-08-06T15:16:05;31.50;50.00
45283;DHT22;31023;44.994;1.796;2022-08-06T15:18:31;31.40;50.70
45283;DHT22;31023;44.994;1.796;2022-08-06T15:20:57;31.40;50.10
45283;DHT22;31023;44.994;1.796;2022-08-06T15:23:22;31.50;51.20
45283;DHT22;31023;44.994;1.796;2022-08-06T15:25:48;31.50;49.90
45283;DHT22;31023;44.994;1.796;2022-08-06T15:28:13;31.40;49.80
45283;DHT22;31023;44.994;1.796;2022-08-06T15:30:41;31.30;49.60
45283;DHT22;31023;44.994;1.796;2022-08-06T15:33:07;31.20;51.60
45283;DHT22;31023;44.994;1.796;2022-08-06T15:35:33;31.20;51.20
45283;DHT22;31023;44.994;1.796;2022-08-06T15:37:58;31.30;51.90
45283;DHT22;31023;44.994;1.796;2022-08-06T15:40:24;31.40;52.40
45283;DHT22;31023;44.994;1.796;2022-08-06T15:42:49;31.40;50.30
45283;DHT22;31023;44.994;1.796;2022-08-06T15:45:15;31.40;49.60
45283;DHT22;31023;44.994;1.796;2022-08-06T15:47:40;31.20;49.20
45283;DHT22;31023;44.994;1.796;2022-08-06T15:50:06;31.20;49.70
45283;DHT22;31023;44.994;1.796;2022-08-06T15:52:32;31.20;51.60
45283;DHT22;31023;44.994;1.796;2022-08-06T15:55:01;31.00;51.00
45283;DHT22;31023;44.994;1.796;2022-08-06T15:57:26;31.00;49.40
45283;DHT22;31023;44.994;1.796;2022-08-06T15:59:52;31.00;50.70
45283;DHT22;31023;44.994;1.796;2022-08-06T16:02:17;31.00;51.20
45283;DHT22;31023;44.994;1.796;2022-08-06T16:04:43;30.90;51.70
45283;DHT22;31023;44.994;1.796;2022-08-06T16:07:08;30.90;50.20
45283;DHT22;31023;44.994;1.796;2022-08-06T16:09:34;30.90;50.20
45283;DHT22;31023;44.994;1.796;2022-08-06T16:12:00;30.80;50.50
45283;DHT22;31023;44.994;1.796;2022-08-06T16:14:28;30.90;49.40
45283;DHT22;31023;44.994;1.796;2022-08-06T16:16:54;30.80;49.30
45283;DHT22;31023;44.994;1.796;2022-08-06T16:19:20;30.80;49.60
45283;DHT22;31023;44.994;1.796;2022-08-06T16:21:45;30.80;49.50
45283;DHT22;31023;44.994;1.796;2022-08-06T16:24:11;30.90;49.80
45283;DHT22;31023;44.994;1.796;2022-08-06T16:26:36;30.70;51.80
45283;DHT22;31023;44.994;1.796;2022-08-06T16:29:03;30.80;52.30
45283;DHT22;31023;44.994;1.796;2022-08-06T16:31:29;30.80;52.00
45283;DHT22;31023;44.994;1.796;2022-08-06T16:33:54;30.90;49.80
45283;DHT22;31023;44.994;1.796;2022-08-06T16:36:20;30.70;49.40
45283;DHT22;31023;44.994;1.796;2022-08-06T16:38:45;30.70;49.60
45283;DHT22;31023;44.994;1.796;2022-08-06T16:41:11;30.70;52.10
45283;DHT22;31023;44.994;1.796;2022-08-06T16:43:36;30.50;53.50
45283;DHT22;31023;44.994;1.796;2022-08-06T16:46:02;30.50;53.60
45283;DHT22;31023;44.994;1.796;2022-08-06T16:48:27;30.50;53.00